KSMX/SMX METAR and TAF weather

Enter ICAO airport designator
Station Type Date Time Source
KSMX METAR 2022/01/19 18:51 UTC NOAA

KSMX 191851Z 31007KT 8SM CLR 14/12 A3020 RMK AO2 SLP230 T01390117


Station Type Date Time Source
KSMX Decoded METAR 2022/01/19 18:51 UTC NOAA

SANTA MARIA PUBLIC AIRPORT, CA, United States (KSMX) 34-54N 120-28W 74M
Jan 19, 2022 - 01:51 PM EST / 2022.01.19 1851 UTC
Wind: from the NW (310 degrees) at 8 MPH (7 KT):0
Visibility: 8 mile(s):0
Sky conditions: clear
Temperature: 57.0 F (13.9 C)
Dew Point: 53.1 F (11.7 C)
Relative Humidity: 86%
Pressure (altimeter): 30.2 in. Hg (1022 hPa)
ob: KSMX 191851Z 31007KT 8SM CLR 14/12 A3020 RMK AO2 SLP230 T01390117
cycle: 19

Station Type Date Time Source
KSMX TAF 2022/01/19 18:36 UTC NOAA

TAF KSMX 191735Z 1918/2018 VRB03KT 6SM BR SCT002
FM191900 VRB03KT 6SM HZ SCT006 SCT200
FM192100 31009KT P6SM SCT200
FM200500 VRB03KT P6SM SCT200
FM201000 VRB03KT 6SM BR SCT004 SCT200

Example: see airport list